Lehigh, North Dakota
Current Conditions -  °F | °C
As of 6:56 AM on Thursday 18 Dec 2014 (Local Time) from KDIK Reporting Station
Overcast Overcast  
Wind Chill: 13°   Ceiling: 1200
Heat Index: 22°   Visibility: 10mi
Dew Point: 18°   Wind: 7mph
Humidity: 85%   Direction: 170°S
Pressure: 29.95"   Gusts: NA
Location:  46.9271°N, 102.754°W
Report Text: KDIK 181356Z AUTO 17006KT 10SM OVC012 M06/M08 A2995 RMK AO2 SLP181 T10561078
Loading
Personal Weather Stations






























Interactive Weather Map New forecast layout! Learn more

10-Day Weather Forecast

Advertisements
Track Severe Weather on mobile